Time;durP1;ratioP1;P1;durP2;ratioP2;P2;SDS_P1;SDS_P2;PMS_P1;PMS_P2;Temp;Humidity;BMP_temperature;BMP_pressure;BME280_temperature;BME280_humidity;BME280_pressure;Samples;Min_cycle;Max_cycle;Signal;HPM_P1;HPM_P2
2021/03/16 00:01:55;;;;;;;;;;;17.20;52.20;;;;;;4921193;29;20016;-87
2021/03/16 00:04:21;;;;;;;;;;;17.20;52.20;;;;;;4904854;29;19934;-86
2021/03/16 00:06:48;;;;;;;;;;;17.10;52.20;;;;;;4918507;28;19930;-86
2021/03/16 00:09:14;;;;;;;;;;;17.20;52.30;;;;;;4903093;29;19933;-85
2021/03/16 00:11:40;;;;;;;;;;;17.20;52.30;;;;;;4918011;29;20267;-86
2021/03/16 00:14:07;;;;;;;;;;;17.10;52.20;;;;;;4915629;29;20460;-85
2021/03/16 00:16:33;;;;;;;;;;;17.20;52.30;;;;;;4920747;28;20600;-86
2021/03/16 00:19:00;;;;;;;;;;;17.20;52.30;;;;;;4901267;29;19958;-87
2021/03/16 00:21:26;;;;;;;;;;;17.10;52.40;;;;;;4915394;29;19982;-87
2021/03/16 00:23:53;;;;;;;;;;;17.10;52.30;;;;;;4903866;29;19927;-87
2021/03/16 00:26:19;;;;;;;;;;;17.10;52.30;;;;;;4900624;29;19981;-85
2021/03/16 00:28:46;;;;;;;;;;;17.10;52.30;;;;;;4894849;29;19927;-86
2021/03/16 00:31:12;;;;;;;;;;;17.10;52.30;;;;;;4918480;29;19990;-86
2021/03/16 00:33:39;;;;;;;;;;;17.10;52.30;;;;;;4920530;29;19986;-86
2021/03/16 00:36:06;;;;;;;;;;;17.10;52.40;;;;;;4899982;28;19915;-86
2021/03/16 00:38:32;;;;;;;;;;;17.10;52.40;;;;;;4898471;29;19938;-86
2021/03/16 00:40:59;;;;;;;;;;;17.10;52.40;;;;;;4918946;29;19931;-86
2021/03/16 00:43:25;;;;;;;;;;;17.10;52.30;;;;;;4903763;29;20014;-86
2021/03/16 00:45:51;;;;;;;;;;;17.10;52.40;;;;;;4906582;29;20343;-87
2021/03/16 00:48:18;;;;;;;;;;;17.10;52.40;;;;;;4903398;29;20025;-85
2021/03/16 00:50:45;;;;;;;;;;;17.10;52.40;;;;;;4924099;29;19965;-85
2021/03/16 00:53:11;;;;;;;;;;;17.10;52.40;;;;;;4921166;28;20431;-86
2021/03/16 00:55:38;;;;;;;;;;;17.10;52.40;;;;;;4927007;29;19915;-86
2021/03/16 00:58:04;;;;;;;;;;;17.10;52.40;;;;;;4916602;29;20722;-85
2021/03/16 01:00:31;;;;;;;;;;;17.10;52.40;;;;;;4902927;29;20392;-86
2021/03/16 01:02:57;;;;;;;;;;;17.10;52.40;;;;;;4922499;29;20186;-86
2021/03/16 01:05:24;;;;;;;;;;;17.10;52.40;;;;;;4924205;29;20338;-86
2021/03/16 01:07:50;;;;;;;;;;;17.10;52.50;;;;;;4918078;29;20029;-86
2021/03/16 01:10:18;;;;;;;;;;;17.10;52.40;;;;;;4903418;29;19930;-86
2021/03/16 01:12:44;;;;;;;;;;;17.00;52.40;;;;;;4925997;29;21391;-86
2021/03/16 01:15:12;;;;;;;;;;;17.00;52.50;;;;;;4923289;29;19987;-86
2021/03/16 01:17:38;;;;;;;;;;;17.10;52.50;;;;;;4916824;28;19926;-86
2021/03/16 01:20:12;;;;;;;;;;;17.00;52.50;;;;;;4901393;29;19974;-86
2021/03/16 01:22:38;;;;;;;;;;;17.10;52.50;;;;;;4907958;29;19927;-86
2021/03/16 01:25:05;;;;;;;;;;;17.00;52.50;;;;;;4906309;29;19935;-86
2021/03/16 01:27:31;;;;;;;;;;;17.00;52.50;;;;;;4911764;29;19927;-86
2021/03/16 01:29:58;;;;;;;;;;;17.00;52.50;;;;;;4917041;28;19934;-86
2021/03/16 01:32:24;;;;;;;;;;;17.00;52.50;;;;;;4920542;29;19927;-87
2021/03/16 01:34:50;;;;;;;;;;;17.00;52.50;;;;;;4902853;29;19935;-87
2021/03/16 01:37:17;;;;;;;;;;;17.00;52.60;;;;;;4928937;29;19941;-86
2021/03/16 01:39:44;;;;;;;;;;;17.00;52.60;;;;;;4914712;29;19974;-86
2021/03/16 01:42:11;;;;;;;;;;;17.00;52.50;;;;;;4903035;29;20609;-85
2021/03/16 01:44:38;;;;;;;;;;;17.00;52.60;;;;;;4905125;29;20445;-85
2021/03/16 01:47:05;;;;;;;;;;;17.00;52.60;;;;;;4914571;29;20007;-85
2021/03/16 01:49:31;;;;;;;;;;;17.00;52.70;;;;;;4916827;29;19993;-86
2021/03/16 01:51:58;;;;;;;;;;;17.00;52.70;;;;;;4922763;29;19955;-86
2021/03/16 01:54:24;;;;;;;;;;;17.00;52.70;;;;;;4915318;29;19982;-86
2021/03/16 01:56:51;;;;;;;;;;;17.00;52.70;;;;;;4920723;28;20045;-88
2021/03/16 01:59:18;;;;;;;;;;;17.00;52.70;;;;;;4896351;29;19942;-88
2021/03/16 02:01:44;;;;;;;;;;;17.00;52.80;;;;;;4903612;29;19927;-87
2021/03/16 02:04:12;;;;;;;;;;;17.00;52.80;;;;;;4907113;29;19931;-87
2021/03/16 02:07:05;;;;;;;;;;;17.00;52.80;;;;;;4901551;29;19966;-86
2021/03/16 02:09:42;;;;;;;;;;;16.90;52.70;;;;;;4915475;28;20410;-83
2021/03/16 02:12:14;;;;;;;;;;;16.90;52.70;;;;;;4926231;29;19941;-83
2021/03/16 02:15:01;;;;;;;;;;;17.00;52.80;;;;;;4916111;29;19927;-83
2021/03/16 02:17:29;;;;;;;;;;;17.00;52.80;;;;;;4919111;29;19925;-83
2021/03/16 02:20:14;;;;;;;;;;;16.90;52.80;;;;;;4922208;29;20260;-87
2021/03/16 02:22:42;;;;;;;;;;;17.00;52.90;;;;;;4919741;29;20088;-86
2021/03/16 02:25:27;;;;;;;;;;;16.90;52.90;;;;;;4902510;29;19954;-86
2021/03/16 02:28:09;;;;;;;;;;;16.90;52.90;;;;;;4890529;29;19915;-86
2021/03/16 02:30:38;;;;;;;;;;;16.90;52.90;;;;;;4900647;28;19975;-86
2021/03/16 02:33:07;;;;;;;;;;;17.00;52.90;;;;;;4906696;29;20292;-86
2021/03/16 02:35:34;;;;;;;;;;;17.00;52.90;;;;;;4903731;29;19934;-86
2021/03/16 02:38:03;;;;;;;;;;;16.90;52.90;;;;;;4904481;29;19926;-86
2021/03/16 02:40:30;;;;;;;;;;;16.90;52.90;;;;;;4916511;29;19927;-86
2021/03/16 02:42:56;;;;;;;;;;;16.90;52.90;;;;;;4923563;29;19930;-86
2021/03/16 02:45:23;;;;;;;;;;;16.90;52.90;;;;;;4897888;29;19966;-85
2021/03/16 02:47:49;;;;;;;;;;;16.90;53.00;;;;;;4922584;29;19931;-84
2021/03/16 02:50:16;;;;;;;;;;;16.90;53.50;;;;;;4918871;29;20030;-85
2021/03/16 02:52:54;;;;;;;;;;;16.90;52.90;;;;;;4907139;29;20393;-85
2021/03/16 02:55:23;;;;;;;;;;;16.90;52.90;;;;;;4916944;29;19965;-86
2021/03/16 02:57:52;;;;;;;;;;;16.90;52.90;;;;;;4915227;29;19937;-84
2021/03/16 03:00:19;;;;;;;;;;;16.90;53.00;;;;;;4920676;28;19922;-84
2021/03/16 03:02:46;;;;;;;;;;;16.90;53.00;;;;;;4919082;29;20330;-84
2021/03/16 03:05:13;;;;;;;;;;;16.90;53.00;;;;;;4916224;29;20525;-84
2021/03/16 03:07:40;;;;;;;;;;;16.90;53.00;;;;;;4917009;29;19927;-84
2021/03/16 03:10:07;;;;;;;;;;;16.90;53.00;;;;;;4901153;29;20380;-84
2021/03/16 03:12:33;;;;;;;;;;;16.90;53.00;;;;;;4920425;29;19934;-84
2021/03/16 03:14:59;;;;;;;;;;;16.90;53.10;;;;;;4912125;29;20458;-83
2021/03/16 03:17:26;;;;;;;;;;;16.90;53.10;;;;;;4898265;29;20422;-84
2021/03/16 03:19:53;;;;;;;;;;;16.80;53.00;;;;;;4918196;29;19931;-84
2021/03/16 03:22:36;;;;;;;;;;;16.90;53.20;;;;;;4915384;29;20006;-85
2021/03/16 03:25:08;;;;;;;;;;;16.90;53.10;;;;;;4910903;29;19915;-85
2021/03/16 03:27:36;;;;;;;;;;;16.90;53.10;;;;;;4897623;29;19925;-84
2021/03/16 03:30:03;;;;;;;;;;;16.90;53.10;;;;;;4905480;29;19927;-84
2021/03/16 03:32:31;;;;;;;;;;;16.80;53.10;;;;;;4895698;29;19927;-84
2021/03/16 03:34:58;;;;;;;;;;;16.90;53.20;;;;;;4896255;29;19927;-84
2021/03/16 03:37:25;;;;;;;;;;;16.90;53.20;;;;;;4915568;29;19982;-84
2021/03/16 03:39:53;;;;;;;;;;;16.80;53.10;;;;;;4918352;29;19981;-84
2021/03/16 03:42:19;;;;;;;;;;;16.80;53.10;;;;;;4901110;29;20027;-84
2021/03/16 03:44:47;;;;;;;;;;;16.90;53.20;;;;;;4901188;29;19938;-84
2021/03/16 03:47:17;;;;;;;;;;;16.80;53.10;;;;;;4920731;29;19931;-84
2021/03/16 03:49:46;;;;;;;;;;;16.80;53.10;;;;;;4907421;29;19951;-84
2021/03/16 03:52:13;;;;;;;;;;;16.80;53.20;;;;;;4919376;29;19930;-85
2021/03/16 03:54:42;;;;;;;;;;;16.80;53.20;;;;;;4900474;29;19969;-84
2021/03/16 03:57:09;;;;;;;;;;;16.80;53.20;;;;;;4919293;29;19928;-84
2021/03/16 03:59:48;;;;;;;;;;;16.80;53.20;;;;;;4903241;29;19938;-84
2021/03/16 04:02:15;;;;;;;;;;;16.80;53.20;;;;;;4915496;29;20018;-85
2021/03/16 04:04:45;;;;;;;;;;;16.80;53.20;;;;;;4919838;29;20050;-85
2021/03/16 04:07:15;;;;;;;;;;;16.80;53.30;;;;;;4896943;29;20017;-85
2021/03/16 04:09:41;;;;;;;;;;;16.80;53.30;;;;;;4919650;29;19927;-85
2021/03/16 04:12:08;;;;;;;;;;;16.80;53.30;;;;;;4918195;29;19969;-85
2021/03/16 04:14:35;;;;;;;;;;;16.80;53.30;;;;;;4918566;29;19962;-85
2021/03/16 04:17:01;;;;;;;;;;;16.80;53.30;;;;;;4925521;29;19962;-85
2021/03/16 04:19:28;;;;;;;;;;;16.80;53.30;;;;;;4903141;29;19967;-84
2021/03/16 04:21:55;;;;;;;;;;;16.80;53.30;;;;;;4904955;29;19927;-85
2021/03/16 04:24:22;;;;;;;;;;;16.80;53.30;;;;;;4923502;29;20291;-83
2021/03/16 04:26:48;;;;;;;;;;;16.80;53.30;;;;;;4909806;29;19926;-84
2021/03/16 04:29:14;;;;;;;;;;;16.80;53.30;;;;;;4911244;29;19970;-83
2021/03/16 04:31:40;;;;;;;;;;;16.80;53.30;;;;;;4905471;29;19926;-82
2021/03/16 04:34:07;;;;;;;;;;;16.80;53.30;;;;;;4902069;29;19931;-85
2021/03/16 04:36:34;;;;;;;;;;;16.80;53.90;;;;;;4923232;29;19927;-83
2021/03/16 04:39:01;;;;;;;;;;;16.70;53.20;;;;;;4926722;29;19945;-83
2021/03/16 04:41:27;;;;;;;;;;;16.80;53.40;;;;;;4905893;29;20343;-82
2021/03/16 04:43:53;;;;;;;;;;;16.70;53.30;;;;;;4923759;29;19941;-83
2021/03/16 04:46:19;;;;;;;;;;;16.80;53.40;;;;;;4917322;29;19927;-83
2021/03/16 04:48:46;;;;;;;;;;;16.70;53.30;;;;;;4903973;29;19938;-86
2021/03/16 04:51:12;;;;;;;;;;;16.70;53.40;;;;;;4906949;29;20434;-85
2021/03/16 04:53:38;;;;;;;;;;;16.70;53.30;;;;;;4924107;29;20106;-85
2021/03/16 04:56:05;;;;;;;;;;;16.70;53.40;;;;;;4906726;29;19927;-83
2021/03/16 04:58:37;;;;;;;;;;;16.70;53.40;;;;;;4920042;29;20850;-84
2021/03/16 05:01:03;;;;;;;;;;;16.70;53.40;;;;;;4922711;29;19965;-83
2021/03/16 05:03:30;;;;;;;;;;;16.70;53.40;;;;;;4910504;29;19966;-85
2021/03/16 05:05:57;;;;;;;;;;;16.70;53.50;;;;;;4911540;29;19941;-89
2021/03/16 05:08:24;;;;;;;;;;;16.70;53.50;;;;;;4906684;29;19928;-85
2021/03/16 05:10:50;;;;;;;;;;;16.80;53.60;;;;;;4922104;29;20030;-85
2021/03/16 05:13:18;;;;;;;;;;;16.70;53.60;;;;;;4903349;29;20117;-85
2021/03/16 05:15:44;;;;;;;;;;;16.70;53.70;;;;;;4909676;29;19962;-83
2021/03/16 05:18:11;;;;;;;;;;;16.70;53.70;;;;;;4904360;29;19927;-86
2021/03/16 05:20:38;;;;;;;;;;;16.70;53.70;;;;;;4902900;29;19927;-84
2021/03/16 05:23:04;;;;;;;;;;;16.70;53.70;;;;;;4900333;29;20017;-84
2021/03/16 05:25:31;;;;;;;;;;;16.70;53.70;;;;;;4922858;29;19933;-83
2021/03/16 05:27:57;;;;;;;;;;;16.70;53.70;;;;;;4898012;29;19958;-83
2021/03/16 05:30:24;;;;;;;;;;;16.70;53.70;;;;;;4922895;29;19990;-83
2021/03/16 05:32:54;;;;;;;;;;;16.70;53.60;;;;;;4901094;29;19927;-84
2021/03/16 05:35:21;;;;;;;;;;;16.70;53.60;;;;;;4924732;29;19927;-85
2021/03/16 05:37:47;;;;;;;;;;;16.70;53.60;;;;;;4923699;29;19938;-84
2021/03/16 05:40:14;;;;;;;;;;;16.70;53.60;;;;;;4907303;29;20584;-85
2021/03/16 05:42:40;;;;;;;;;;;16.70;53.60;;;;;;4899242;29;19931;-85
2021/03/16 05:45:06;;;;;;;;;;;16.70;53.60;;;;;;4921818;29;19933;-85
2021/03/16 05:47:37;;;;;;;;;;;16.70;53.60;;;;;;4915239;29;19935;-85
2021/03/16 05:50:04;;;;;;;;;;;16.70;53.60;;;;;;4924198;29;19926;-84
2021/03/16 05:52:30;;;;;;;;;;;16.70;53.70;;;;;;4899452;29;20009;-85
2021/03/16 05:54:56;;;;;;;;;;;16.70;53.80;;;;;;4905428;29;19934;-86
2021/03/16 05:57:23;;;;;;;;;;;16.70;53.80;;;;;;4930213;29;19926;-87
2021/03/16 05:59:49;;;;;;;;;;;16.70;53.80;;;;;;4909941;29;19926;-85
2021/03/16 06:02:16;;;;;;;;;;;16.70;53.80;;;;;;4924846;28;19935;-87
2021/03/16 06:04:43;;;;;;;;;;;16.70;53.80;;;;;;4928325;29;20406;-87
2021/03/16 06:07:13;;;;;;;;;;;16.70;53.90;;;;;;4909911;29;20133;-87
2021/03/16 06:09:40;;;;;;;;;;;16.70;53.90;;;;;;4901286;29;19927;-86
2021/03/16 06:12:06;;;;;;;;;;;16.70;53.90;;;;;;4908308;29;20339;-93
2021/03/16 06:14:48;;;;;;;;;;;16.70;54.20;;;;;;4918431;29;19927;-86
2021/03/16 06:17:17;;;;;;;;;;;16.70;54.20;;;;;;4908660;29;20429;-86
2021/03/16 06:19:45;;;;;;;;;;;16.70;54.00;;;;;;4916628;29;19926;-88
2021/03/16 06:22:15;;;;;;;;;;;16.70;54.00;;;;;;4921142;29;19927;-87
2021/03/16 06:24:45;;;;;;;;;;;16.70;53.90;;;;;;4915319;29;19937;-82
2021/03/16 06:27:24;;;;;;;;;;;16.70;53.90;;;;;;4928146;29;19971;-83
2021/03/16 06:29:51;;;;;;;;;;;16.70;54.00;;;;;;4916105;29;19927;-82
2021/03/16 06:32:17;;;;;;;;;;;16.70;54.00;;;;;;4924908;29;19962;-82
2021/03/16 06:34:44;;;;;;;;;;;16.70;54.20;;;;;;4925575;29;19927;-82
2021/03/16 06:37:10;;;;;;;;;;;16.70;54.30;;;;;;4913972;29;19974;-82
2021/03/16 06:39:46;;;;;;;;;;;16.70;54.20;;;;;;4892213;29;19936;-85
2021/03/16 06:42:26;;;;;;;;;;;16.70;54.00;;;;;;4900630;29;19927;-84
2021/03/16 06:45:06;;;;;;;;;;;16.70;53.90;;;;;;4887188;29;19927;-91
2021/03/16 06:47:42;;;;;;;;;;;16.70;53.90;;;;;;4880465;29;19935;-86
2021/03/16 06:50:09;;;;;;;;;;;16.70;53.90;;;;;;4905943;29;19931;-84
2021/03/16 06:52:35;;;;;;;;;;;16.70;54.10;;;;;;4877137;29;20017;-84
2021/03/16 06:55:14;;;;;;;;;;;16.70;54.10;;;;;;4888754;29;20307;-85
2021/03/16 06:57:40;;;;;;;;;;;16.70;54.20;;;;;;4898821;29;19935;-88
2021/03/16 07:00:13;;;;;;;;;;;16.70;54.00;;;;;;4897905;29;19934;-94
2021/03/16 07:02:40;;;;;;;;;;;16.70;54.00;;;;;;4882772;29;19931;-85
2021/03/16 07:05:09;;;;;;;;;;;16.70;54.00;;;;;;4901782;29;19927;-85
2021/03/16 07:07:36;;;;;;;;;;;16.70;55.00;;;;;;4880862;29;20018;-84
2021/03/16 07:10:04;;;;;;;;;;;16.80;55.40;;;;;;4885254;29;19935;-87
2021/03/16 07:12:35;;;;;;;;;;;16.80;55.70;;;;;;4880117;29;19923;-88
2021/03/16 07:15:04;;;;;;;;;;;16.90;56.50;;;;;;4890915;29;19931;-96
2021/03/16 07:17:37;;;;;;;;;;;17.00;56.60;;;;;;4893652;29;19931;-96
2021/03/16 07:20:07;;;;;;;;;;;17.10;56.50;;;;;;4888266;29;19982;-90
2021/03/16 07:22:41;;;;;;;;;;;17.10;57.00;;;;;;4889219;29;19927;-92
2021/03/16 07:25:08;;;;;;;;;;;17.20;56.00;;;;;;4900287;29;19954;-94
2021/03/16 07:27:39;;;;;;;;;;;17.30;56.00;;;;;;4885084;29;19938;-91
2021/03/16 07:30:05;;;;;;;;;;;17.30;55.60;;;;;;4890410;29;19928;-85
2021/03/16 07:32:33;;;;;;;;;;;17.40;55.10;;;;;;4910410;29;19927;-86
2021/03/16 07:35:00;;;;;;;;;;;17.40;54.00;;;;;;4892679;29;19934;-85
2021/03/16 07:37:28;;;;;;;;;;;17.30;54.10;;;;;;4887360;29;19942;-85
2021/03/16 07:40:00;;;;;;;;;;;17.30;53.90;;;;;;4906375;29;19934;-93
2021/03/16 07:42:27;;;;;;;;;;;17.30;53.80;;;;;;4885160;29;19954;-85
2021/03/16 07:44:53;;;;;;;;;;;17.30;53.70;;;;;;4887360;29;19935;-86
2021/03/16 07:47:20;;;;;;;;;;;17.30;53.60;;;;;;4883989;29;20395;-84
2021/03/16 07:49:59;;;;;;;;;;;17.30;56.10;;;;;;4901239;29;19935;-93
2021/03/16 07:52:27;;;;;;;;;;;18.00;54.00;;;;;;4896523;29;19947;-96
2021/03/16 07:54:58;;;;;;;;;;;19.00;52.00;;;;;;4936970;23;19941;-95
2021/03/16 07:57:30;;;;;;;;;;;19.70;50.60;;;;;;4927609;29;19954;-91
2021/03/16 08:00:00;;;;;;;;;;;20.10;49.50;;;;;;4910213;29;20687;-86
2021/03/16 08:02:27;;;;;;;;;;;20.50;48.90;;;;;;4927608;29;19927;-85
2021/03/16 08:04:54;;;;;;;;;;;20.80;48.40;;;;;;4923057;29;20017;-87
2021/03/16 08:07:24;;;;;;;;;;;21.10;48.20;;;;;;4945692;28;19985;-91
2021/03/16 08:09:57;;;;;;;;;;;21.30;47.90;;;;;;4933361;29;19926;-93
2021/03/16 08:12:27;;;;;;;;;;;21.50;47.40;;;;;;4924183;29;19915;-89
2021/03/16 08:15:08;;;;;;;;;;;21.60;47.20;;;;;;4928618;29;19938;-88
2021/03/16 08:17:35;;;;;;;;;;;22.00;46.90;;;;;;4930170;29;19998;-94
2021/03/16 08:20:05;;;;;;;;;;;22.30;46.30;;;;;;4922457;29;19934;-85
2021/03/16 08:22:32;;;;;;;;;;;22.50;45.90;;;;;;4936216;29;20399;-88
2021/03/16 08:24:59;;;;;;;;;;;22.60;45.90;;;;;;4920245;29;19927;-86
2021/03/16 08:27:26;;;;;;;;;;;22.70;45.60;;;;;;4925753;29;19926;-89
2021/03/16 08:29:53;;;;;;;;;;;22.80;45.60;;;;;;4942888;28;19934;-89
2021/03/16 08:32:20;;;;;;;;;;;22.90;45.30;;;;;;4927700;29;19931;-93
2021/03/16 08:34:47;;;;;;;;;;;23.00;45.20;;;;;;4930596;29;19931;-87
2021/03/16 08:37:20;;;;;;;;;;;23.20;45.10;;;;;;4929587;28;19935;-86
2021/03/16 08:39:46;;;;;;;;;;;23.30;44.70;;;;;;4942846;29;19930;-91
2021/03/16 08:42:15;;;;;;;;;;;23.40;45.20;;;;;;4922129;29;20029;-86
2021/03/16 08:44:42;;;;;;;;;;;23.40;44.80;;;;;;4921813;29;19962;-85
2021/03/16 08:47:09;;;;;;;;;;;23.50;44.30;;;;;;4925639;29;19964;-88
2021/03/16 08:49:48;;;;;;;;;;;23.70;44.30;;;;;;4928900;28;19935;-87
2021/03/16 08:52:16;;;;;;;;;;;23.80;44.10;;;;;;4904488;29;20447;-86
2021/03/16 08:54:42;;;;;;;;;;;23.90;44.00;;;;;;4922297;29;19930;-88
2021/03/16 08:57:08;;;;;;;;;;;24.00;43.90;;;;;;4922209;29;19930;-88
2021/03/16 08:59:35;;;;;;;;;;;24.10;43.90;;;;;;4925738;29;20029;-89
2021/03/16 09:02:02;;;;;;;;;;;24.30;43.70;;;;;;4924626;29;19934;-86
2021/03/16 09:04:30;;;;;;;;;;;24.30;43.70;;;;;;4940404;28;19974;-88
2021/03/16 09:06:56;;;;;;;;;;;24.40;43.30;;;;;;4923077;29;20013;-89
2021/03/16 09:09:27;;;;;;;;;;;24.50;43.50;;;;;;4921359;29;20681;-86
2021/03/16 09:11:54;;;;;;;;;;;24.70;43.30;;;;;;4917383;29;20371;-91
2021/03/16 09:14:23;;;;;;;;;;;24.80;43.10;;;;;;4923635;29;19938;-92
2021/03/16 09:16:54;;;;;;;;;;;24.90;43.00;;;;;;4924987;29;19966;-92
2021/03/16 09:19:22;;;;;;;;;;;24.90;42.90;;;;;;4925546;23;19925;-92
2021/03/16 09:21:50;;;;;;;;;;;25.00;43.10;;;;;;4892778;29;19987;-91
2021/03/16 09:24:20;;;;;;;;;;;25.00;42.90;;;;;;4875664;29;19927;-94
2021/03/16 09:27:07;;;;;;;;;;;25.10;42.80;;;;;;4873189;29;20425;-88
2021/03/16 09:29:35;;;;;;;;;;;25.10;42.60;;;;;;4889841;29;20589;-90
2021/03/16 09:32:13;;;;;;;;;;;25.00;42.80;;;;;;4888203;29;19932;-91
2021/03/16 09:34:43;;;;;;;;;;;25.20;42.50;;;;;;4868564;29;19939;-85
2021/03/16 09:37:11;;;;;;;;;;;25.40;42.50;;;;;;4884065;29;19959;-86
2021/03/16 09:39:37;;;;;;;;;;;25.40;42.50;;;;;;4865901;29;20059;-86
2021/03/16 09:42:05;;;;;;;;;;;25.50;42.60;;;;;;4861873;29;19947;-91
2021/03/16 09:44:34;;;;;;;;;;;25.50;42.30;;;;;;4864597;29;19934;-89
2021/03/16 09:47:02;;;;;;;;;;;25.60;42.20;;;;;;4868726;29;19931;-90
2021/03/16 09:49:30;;;;;;;;;;;25.70;41.90;;;;;;4865842;29;20673;-86
2021/03/16 09:52:00;;;;;;;;;;;25.70;42.20;;;;;;4887321;29;20039;-93
2021/03/16 09:54:26;;;;;;;;;;;25.90;41.90;;;;;;4868239;29;19936;-87
2021/03/16 09:56:53;;;;;;;;;;;25.90;41.70;;;;;;4870108;29;19931;-88
2021/03/16 09:59:19;;;;;;;;;;;25.90;41.60;;;;;;4868584;29;20297;-89
2021/03/16 10:02:00;;;;;;;;;;;24.90;40.10;;;;;;4872094;29;19931;-94
2021/03/16 10:04:26;;;;;;;;;;;24.80;41.60;;;;;;4872824;29;19932;-87
2021/03/16 10:06:56;;;;;;;;;;;25.30;41.90;;;;;;4867761;29;19931;-87
2021/03/16 10:09:23;;;;;;;;;;;25.60;41.40;;;;;;4872032;29;19942;-90
2021/03/16 10:11:50;;;;;;;;;;;25.80;41.30;;;;;;4887739;29;19928;-92
2021/03/16 10:14:26;;;;;;;;;;;25.90;41.30;;;;;;4874990;29;19995;-92
2021/03/16 10:16:54;;;;;;;;;;;26.00;41.70;;;;;;4867345;29;19963;-89
2021/03/16 10:19:21;;;;;;;;;;;26.20;42.00;;;;;;4856226;29;20377;-91
2021/03/16 10:21:48;;;;;;;;;;;26.30;41.90;;;;;;4889032;29;19931;-87
2021/03/16 10:24:22;;;;;;;;;;;26.30;41.00;;;;;;4906300;29;20459;-93
2021/03/16 10:26:55;;;;;;;;;;;26.30;41.60;;;;;;4900746;29;20035;-94
2021/03/16 10:29:22;;;;;;;;;;;26.40;41.10;;;;;;4870814;29;19935;-88
2021/03/16 10:31:49;;;;;;;;;;;26.50;41.10;;;;;;4901776;29;20013;-91
2021/03/16 10:34:15;;;;;;;;;;;26.50;41.60;;;;;;4889300;29;19935;-87
2021/03/16 10:36:42;;;;;;;;;;;26.60;41.30;;;;;;4888379;29;19935;-90
2021/03/16 10:39:08;;;;;;;;;;;26.70;41.40;;;;;;4885303;29;19931;-87
2021/03/16 10:41:34;;;;;;;;;;;26.90;41.10;;;;;;4888505;29;19934;-86
2021/03/16 10:44:01;;;;;;;;;;;27.00;40.50;;;;;;4902691;29;20650;-88
2021/03/16 10:46:27;;;;;;;;;;;27.10;40.60;;;;;;4891182;29;19938;-90
2021/03/16 10:48:54;;;;;;;;;;;27.10;40.00;;;;;;4905741;29;19939;-94
2021/03/16 10:51:21;;;;;;;;;;;27.10;39.90;;;;;;4883816;29;19981;-87
2021/03/16 10:53:47;;;;;;;;;;;27.20;40.00;;;;;;4898796;29;19935;-91
2021/03/16 10:56:14;;;;;;;;;;;27.20;40.00;;;;;;4886733;29;19983;-87
2021/03/16 10:58:40;;;;;;;;;;;27.20;40.00;;;;;;4890201;29;19923;-85
2021/03/16 11:01:07;;;;;;;;;;;27.30;40.00;;;;;;4901987;29;19932;-92
2021/03/16 11:03:36;;;;;;;;;;;27.40;40.10;;;;;;4904009;29;19938;-87
2021/03/16 11:06:03;;;;;;;;;;;27.40;39.60;;;;;;4903644;29;19926;-86
2021/03/16 11:08:30;;;;;;;;;;;27.50;40.00;;;;;;4888938;29;21268;-84
2021/03/16 11:10:56;;;;;;;;;;;27.60;39.80;;;;;;4905006;29;20732;-88
2021/03/16 11:13:23;;;;;;;;;;;27.50;39.90;;;;;;4888027;29;19935;-85
2021/03/16 11:15:49;;;;;;;;;;;27.60;40.10;;;;;;4900100;29;19989;-86
2021/03/16 11:18:17;;;;;;;;;;;27.70;40.10;;;;;;4888188;29;19916;-84
2021/03/16 11:20:44;;;;;;;;;;;27.70;39.90;;;;;;4905640;29;19927;-91
2021/03/16 11:23:10;;;;;;;;;;;27.90;39.80;;;;;;4886809;29;19946;-87
2021/03/16 11:25:36;;;;;;;;;;;27.90;39.80;;;;;;4887086;29;20295;-85
2021/03/16 11:28:03;;;;;;;;;;;27.90;40.30;;;;;;4894250;29;19928;-92
2021/03/16 11:30:31;;;;;;;;;;;27.90;40.20;;;;;;4890656;29;20375;-86
2021/03/16 11:32:58;;;;;;;;;;;27.90;40.20;;;;;;4887274;29;19979;-87
2021/03/16 11:35:24;;;;;;;;;;;28.00;39.70;;;;;;4889783;29;19935;-87
2021/03/16 11:37:51;;;;;;;;;;;28.00;39.90;;;;;;4888783;29;19927;-86
2021/03/16 11:40:17;;;;;;;;;;;28.00;39.90;;;;;;4873245;29;19926;-91
2021/03/16 11:42:44;;;;;;;;;;;26.60;39.30;;;;;;4889721;29;19959;-85
2021/03/16 11:45:10;;;;;;;;;;;25.40;42.90;;;;;;4904223;29;19934;-90
2021/03/16 11:47:36;;;;;;;;;;;24.70;45.30;;;;;;4886735;29;20750;-90
2021/03/16 11:50:03;;;;;;;;;;;24.20;47.50;;;;;;4903229;29;19935;-88
2021/03/16 11:52:30;;;;;;;;;;;23.80;48.50;;;;;;4891883;29;19934;-90
2021/03/16 11:54:56;;;;;;;;;;;23.60;49.80;;;;;;4880914;29;20349;-93
2021/03/16 11:57:22;;;;;;;;;;;23.50;49.60;;;;;;4889914;29;20223;-90
2021/03/16 11:59:50;;;;;;;;;;;23.50;52.50;;;;;;4892720;29;19948;-86
2021/03/16 12:02:16;;;;;;;;;;;23.90;50.80;;;;;;4887002;29;19974;-88
2021/03/16 12:04:43;;;;;;;;;;;24.00;50.00;;;;;;4886817;29;19928;-88
2021/03/16 12:07:09;;;;;;;;;;;24.20;49.10;;;;;;4888134;29;19934;-87
2021/03/16 12:09:55;;;;;;;;;;;24.20;48.30;;;;;;4891232;29;19935;-87
2021/03/16 12:12:24;;;;;;;;;;;24.30;47.80;;;;;;4896207;29;19935;-90
2021/03/16 12:14:51;;;;;;;;;;;24.30;48.20;;;;;;4887598;29;20424;-94
2021/03/16 12:17:17;;;;;;;;;;;24.30;48.60;;;;;;4889435;29;19935;-91
2021/03/16 12:19:44;;;;;;;;;;;24.40;48.60;;;;;;4879536;29;19928;-95
2021/03/16 12:22:10;;;;;;;;;;;24.30;49.40;;;;;;4884053;29;19939;-93
2021/03/16 12:24:36;;;;;;;;;;;24.30;49.10;;;;;;4881974;29;19999;-89
2021/03/16 12:27:03;;;;;;;;;;;24.30;47.90;;;;;;4869779;29;19931;-90
2021/03/16 12:29:29;;;;;;;;;;;24.40;48.20;;;;;;4866347;29;19931;-89
2021/03/16 12:31:56;;;;;;;;;;;24.40;48.20;;;;;;4867074;29;19936;-94
2021/03/16 12:34:37;;;;;;;;;;;24.30;47.90;;;;;;4873748;29;20335;-90
2021/03/16 12:37:04;;;;;;;;;;;24.30;48.10;;;;;;4870149;29;19931;-90
2021/03/16 12:39:31;;;;;;;;;;;24.30;48.00;;;;;;4869909;29;19939;-90
2021/03/16 12:41:57;;;;;;;;;;;24.30;48.10;;;;;;4871353;29;19992;-86
2021/03/16 12:44:23;;;;;;;;;;;24.40;47.70;;;;;;4885597;29;20385;-93
2021/03/16 12:46:50;;;;;;;;;;;24.30;48.30;;;;;;4868444;29;19931;-89
2021/03/16 12:49:16;;;;;;;;;;;24.30;49.10;;;;;;4871423;29;20368;-89
2021/03/16 12:51:43;;;;;;;;;;;24.30;48.10;;;;;;4870722;29;19970;-87
2021/03/16 12:54:09;;;;;;;;;;;24.30;48.50;;;;;;4869637;29;19931;-87
2021/03/16 12:56:36;;;;;;;;;;;24.30;48.10;;;;;;4868144;29;20032;-90
2021/03/16 12:59:02;;;;;;;;;;;24.20;48.10;;;;;;4871822;29;19996;-91
2021/03/16 13:01:28;;;;;;;;;;;24.20;48.10;;;;;;4872605;29;19994;-85
2021/03/16 13:03:55;;;;;;;;;;;24.20;47.00;;;;;;4866280;29;20029;-85
2021/03/16 13:06:21;;;;;;;;;;;23.40;47.60;;;;;;4873991;29;19979;-86
2021/03/16 13:08:48;;;;;;;;;;;23.00;49.30;;;;;;4886165;29;19959;-84
2021/03/16 13:11:15;;;;;;;;;;;22.80;50.10;;;;;;4873179;29;19939;-83
2021/03/16 13:13:41;;;;;;;;;;;22.60;49.90;;;;;;4868685;29;19971;-83
2021/03/16 13:16:08;;;;;;;;;;;22.50;49.90;;;;;;4880145;29;19932;-84
2021/03/16 13:18:34;;;;;;;;;;;22.40;49.70;;;;;;4886596;29;19932;-84
2021/03/16 13:21:01;;;;;;;;;;;22.30;48.70;;;;;;4902243;29;19927;-84
2021/03/16 13:23:27;;;;;;;;;;;22.10;48.60;;;;;;4888121;29;19931;-84
2021/03/16 13:25:53;;;;;;;;;;;22.00;48.70;;;;;;4907637;29;19938;-84
2021/03/16 13:28:20;;;;;;;;;;;21.90;49.10;;;;;;4904585;29;20361;-82
2021/03/16 13:30:46;;;;;;;;;;;21.90;49.20;;;;;;4907097;29;20439;-83
2021/03/16 13:33:12;;;;;;;;;;;21.80;49.30;;;;;;4903153;29;19942;-90
2021/03/16 13:35:39;;;;;;;;;;;22.00;55.00;;;;;;4889025;29;19963;-87
2021/03/16 13:38:05;;;;;;;;;;;22.20;54.60;;;;;;4891046;29;19934;-95
2021/03/16 13:40:32;;;;;;;;;;;22.30;53.70;;;;;;4889835;29;20023;-92
2021/03/16 13:42:58;;;;;;;;;;;22.40;53.00;;;;;;4898774;29;19958;-93
2021/03/16 13:45:25;;;;;;;;;;;22.60;52.90;;;;;;4905269;29;19935;-91
2021/03/16 13:47:52;;;;;;;;;;;22.70;52.60;;;;;;4895531;29;19942;-95
2021/03/16 13:50:19;;;;;;;;;;;22.80;52.50;;;;;;4899428;29;20150;-93
2021/03/16 13:52:45;;;;;;;;;;;22.80;52.30;;;;;;4896720;29;19935;-90
2021/03/16 13:55:12;;;;;;;;;;;22.90;52.40;;;;;;4901955;29;19935;-92
2021/03/16 13:57:38;;;;;;;;;;;22.90;52.10;;;;;;4893737;29;19935;-89
2021/03/16 14:00:06;;;;;;;;;;;22.50;49.10;;;;;;4890649;29;20490;-87
2021/03/16 14:02:32;;;;;;;;;;;22.20;52.70;;;;;;4896673;29;19935;-93
2021/03/16 14:04:59;;;;;;;;;;;22.40;53.40;;;;;;4895630;29;19958;-91
2021/03/16 14:07:25;;;;;;;;;;;22.60;53.60;;;;;;4892009;29;19934;-88
2021/03/16 14:09:52;;;;;;;;;;;22.70;53.30;;;;;;4884312;29;20195;-88
2021/03/16 14:12:18;;;;;;;;;;;22.80;52.50;;;;;;4892085;29;19931;-91
2021/03/16 14:14:45;;;;;;;;;;;22.90;52.40;;;;;;4890398;29;20451;-84
2021/03/16 14:17:11;;;;;;;;;;;22.90;52.50;;;;;;4901998;29;19942;-92
2021/03/16 14:19:38;;;;;;;;;;;23.00;52.10;;;;;;4889442;29;20383;-93
2021/03/16 14:22:05;;;;;;;;;;;23.00;52.60;;;;;;4864606;29;20034;-87